createdAt,value
2023-05-10T00:00:19.478Z,23.20
2023-05-10T00:02:50.383Z,23.20
2023-05-10T00:05:19.735Z,23.20
2023-05-10T00:07:48.897Z,23.20
2023-05-10T00:10:18.475Z,23.20
2023-05-10T00:12:48.135Z,23.20
2023-05-10T00:15:17.416Z,23.20
2023-05-10T00:17:46.723Z,23.20
2023-05-10T00:20:17.514Z,23.20
2023-05-10T00:22:47.278Z,23.20
2023-05-10T00:25:16.518Z,23.10
2023-05-10T00:27:45.771Z,23.10
2023-05-10T00:30:15.258Z,23.10
2023-05-10T00:32:45.039Z,23.10
2023-05-10T00:35:14.348Z,23.10
2023-05-10T00:37:45.149Z,23.10
2023-05-10T00:40:15.450Z,23.10
2023-05-10T00:42:47.799Z,23.10
2023-05-10T00:45:17.064Z,23.10
2023-05-10T00:47:46.445Z,23.10
2023-05-10T00:50:17.455Z,23.10
2023-05-10T00:52:48.448Z,23.10
2023-05-10T00:55:17.921Z,23.10
2023-05-10T00:57:47.412Z,23.10
2023-05-10T01:00:19.424Z,23.10
2023-05-10T01:02:49.323Z,23.10
2023-05-10T01:05:18.736Z,23.10
2023-05-10T01:07:49.490Z,23.10
2023-05-10T01:10:18.888Z,23.10
2023-05-10T01:12:49.461Z,23.10
2023-05-10T01:15:20.129Z,23.10
2023-05-10T01:17:50.805Z,23.10
2023-05-10T01:20:20.330Z,23.10
2023-05-10T01:23:31.132Z,23.10
2023-05-10T01:26:25.522Z,23.10
2023-05-10T01:29:58.163Z,23.10
2023-05-10T01:32:43.479Z,23.10
2023-05-10T01:35:21.307Z,23.10
2023-05-10T01:38:02.025Z,23.10
2023-05-10T01:40:38.711Z,23.10
2023-05-10T01:43:21.977Z,23.10
2023-05-10T01:46:02.171Z,23.10
2023-05-10T01:48:36.247Z,23.10
2023-05-10T01:51:07.464Z,23.10
2023-05-10T01:53:39.834Z,23.10
2023-05-10T01:56:12.106Z,23.10
2023-05-10T01:58:46.761Z,23.10
2023-05-10T02:01:16.672Z,23.00
2023-05-10T02:03:50.096Z,23.00
2023-05-10T02:06:21.149Z,23.00
2023-05-10T02:08:52.701Z,23.00
2023-05-10T02:11:23.514Z,23.00
2023-05-10T02:13:53.962Z,23.00
2023-05-10T02:16:32.081Z,23.00
2023-05-10T02:19:04.641Z,23.00
2023-05-10T02:21:36.096Z,23.00
2023-05-10T02:24:06.598Z,23.00
2023-05-10T02:26:37.529Z,23.00
2023-05-10T02:29:09.151Z,23.00
2023-05-10T02:31:40.139Z,23.00
2023-05-10T02:34:12.502Z,23.00
2023-05-10T02:36:43.522Z,23.00
2023-05-10T02:39:14.669Z,23.00
2023-05-10T02:41:45.910Z,23.00
2023-05-10T02:44:20.037Z,23.00
2023-05-10T02:46:50.253Z,23.00
2023-05-10T02:49:21.118Z,23.00
2023-05-10T02:51:57.958Z,23.00
2023-05-10T02:54:31.885Z,23.00
2023-05-10T02:57:02.823Z,22.90
2023-05-10T02:59:32.123Z,22.90
2023-05-10T03:02:03.168Z,22.90
2023-05-10T03:04:33.931Z,22.90
2023-05-10T03:07:03.691Z,22.90
2023-05-10T03:09:33.702Z,22.90
2023-05-10T03:12:10.262Z,22.90
2023-05-10T03:14:51.308Z,22.90
2023-05-10T03:17:26.123Z,22.90
2023-05-10T03:20:00.223Z,22.90
2023-05-10T03:22:34.690Z,22.90
2023-05-10T03:25:08.040Z,22.90
2023-05-10T03:27:41.211Z,22.90
2023-05-10T03:30:12.747Z,22.90
2023-05-10T03:32:42.537Z,22.90
2023-05-10T03:35:15.348Z,22.90
2023-05-10T03:37:44.962Z,22.90
2023-05-10T03:40:14.612Z,22.90
2023-05-10T03:42:45.524Z,22.90
2023-05-10T03:45:14.767Z,22.90
2023-05-10T03:47:44.044Z,22.90
2023-05-10T03:50:15.154Z,22.90
2023-05-10T03:52:45.545Z,22.90
2023-05-10T03:55:14.814Z,22.90
2023-05-10T03:57:44.223Z,22.80
2023-05-10T04:00:14.750Z,22.80
2023-05-10T04:02:45.941Z,22.80
2023-05-10T04:05:21.866Z,22.80
2023-05-10T04:07:52.283Z,22.80
2023-05-10T04:10:22.397Z,22.80
2023-05-10T04:12:51.763Z,22.80
2023-05-10T04:15:21.223Z,22.80
2023-05-10T04:17:50.581Z,22.80
2023-05-10T04:20:21.548Z,22.80
2023-05-10T04:22:50.936Z,22.80
2023-05-10T04:25:20.297Z,22.80
2023-05-10T04:27:49.592Z,22.80
2023-05-10T04:30:19.176Z,22.80
2023-05-10T04:32:48.745Z,22.80
2023-05-10T04:35:18.288Z,22.80
2023-05-10T04:37:48.935Z,22.80
2023-05-10T04:40:18.474Z,22.80
2023-05-10T04:42:48.470Z,22.80
2023-05-10T04:45:17.787Z,22.80
2023-05-10T04:47:47.064Z,22.80
2023-05-10T04:50:16.718Z,22.80
2023-05-10T04:52:46.202Z,22.80
2023-05-10T04:55:17.305Z,22.80
2023-05-10T04:57:46.922Z,22.80
2023-05-10T05:00:17.379Z,22.80
2023-05-10T05:02:47.620Z,22.80
2023-05-10T05:05:17.030Z,22.80
2023-05-10T05:07:46.262Z,22.80
2023-05-10T05:10:17.196Z,22.80
2023-05-10T05:12:47.530Z,22.80
2023-05-10T05:15:18.008Z,22.70
2023-05-10T05:17:48.284Z,22.80
2023-05-10T05:20:20.780Z,22.80
2023-05-10T05:22:50.424Z,22.70
2023-05-10T05:25:21.171Z,22.70
2023-05-10T05:27:50.426Z,22.80
2023-05-10T05:30:19.846Z,22.70
2023-05-10T05:32:49.525Z,22.70
2023-05-10T05:35:18.977Z,22.70
2023-05-10T05:37:48.474Z,22.70
2023-05-10T05:40:17.785Z,22.70
2023-05-10T05:42:48.412Z,22.70
2023-05-10T05:45:18.110Z,22.80
2023-05-10T05:47:47.704Z,22.70
2023-05-10T05:50:16.901Z,22.80
2023-05-10T05:52:46.098Z,22.80
2023-05-10T05:55:15.687Z,22.80
2023-05-10T05:57:45.204Z,22.80
2023-05-10T06:00:16.850Z,22.80
2023-05-10T06:02:48.817Z,22.80
2023-05-10T06:05:18.529Z,22.80
2023-05-10T06:07:47.884Z,22.80
2023-05-10T06:10:17.251Z,22.90
2023-05-10T06:12:46.664Z,22.90
2023-05-10T06:15:18.096Z,22.90
2023-05-10T06:17:48.405Z,22.90
2023-05-10T06:20:18.038Z,22.90
2023-05-10T06:22:47.470Z,22.90
2023-05-10T06:25:19.292Z,22.90
2023-05-10T06:27:52.694Z,23.00
2023-05-10T06:30:28.494Z,23.00
2023-05-10T06:32:58.287Z,23.00
2023-05-10T06:35:28.358Z,23.10
2023-05-10T06:37:58.209Z,23.10
2023-05-10T06:40:28.866Z,23.10
2023-05-10T06:42:58.684Z,23.10
2023-05-10T06:45:29.581Z,23.10
2023-05-10T06:47:58.941Z,23.10
2023-05-10T06:50:28.163Z,23.10
2023-05-10T06:53:22.171Z,23.10
2023-05-10T06:55:52.656Z,23.10
2023-05-10T06:58:21.967Z,23.10
2023-05-10T07:00:52.765Z,23.10
2023-05-10T07:03:22.266Z,23.10
2023-05-10T07:05:51.742Z,23.10
2023-05-10T07:08:21.123Z,23.10
2023-05-10T07:10:50.466Z,23.10
2023-05-10T07:13:19.886Z,23.10
2023-05-10T07:15:49.263Z,23.10
2023-05-10T07:18:19.894Z,23.10
2023-05-10T07:20:49.156Z,23.10
2023-05-10T07:23:18.978Z,23.10
2023-05-10T07:25:48.781Z,23.10
2023-05-10T07:28:18.785Z,23.10
2023-05-10T07:30:48.396Z,23.10
2023-05-10T07:33:18.247Z,23.10
2023-05-10T07:35:48.914Z,23.10
2023-05-10T07:38:18.742Z,23.10
2023-05-10T07:40:48.292Z,23.10
2023-05-10T07:43:17.585Z,23.10
2023-05-10T07:45:47.170Z,23.10
2023-05-10T07:48:16.722Z,23.10
2023-05-10T07:50:46.251Z,23.10
2023-05-10T07:53:17.485Z,23.10
2023-05-10T07:55:47.236Z,23.10
2023-05-10T07:58:16.786Z,23.10
2023-05-10T08:00:45.989Z,23.10
2023-05-10T08:03:15.414Z,23.10
2023-05-10T08:05:44.722Z,23.10
2023-05-10T08:08:13.871Z,23.10
2023-05-10T08:10:45.034Z,23.10
2023-05-10T08:13:14.293Z,23.10
2023-05-10T08:15:43.480Z,23.10
2023-05-10T08:18:12.938Z,23.10
2023-05-10T08:20:42.166Z,23.10
2023-05-10T08:23:11.566Z,23.10
2023-05-10T08:25:41.058Z,23.10
2023-05-10T08:28:12.042Z,23.10
2023-05-10T08:30:41.415Z,23.10
2023-05-10T08:33:10.859Z,23.10
2023-05-10T08:35:40.144Z,23.10
2023-05-10T08:38:09.373Z,23.00
2023-05-10T08:40:39.829Z,23.10
2023-05-10T08:43:12.131Z,23.10
2023-05-10T08:45:42.950Z,23.10
2023-05-10T08:48:14.122Z,23.10
2023-05-10T08:50:45.753Z,23.10
2023-05-10T08:53:17.650Z,23.10
2023-05-10T08:55:46.976Z,23.10
2023-05-10T08:58:20.888Z,23.10
2023-05-10T09:00:53.849Z,23.20
2023-05-10T09:03:23.392Z,23.20
2023-05-10T09:05:53.073Z,23.20
2023-05-10T09:08:23.148Z,23.20
2023-05-10T09:10:52.434Z,23.20
2023-05-10T09:13:24.535Z,23.20
2023-05-10T09:15:55.580Z,23.20
2023-05-10T09:18:27.323Z,23.20
2023-05-10T09:20:57.329Z,23.20
2023-05-10T09:23:32.548Z,23.20
2023-05-10T09:26:05.720Z,23.20
2023-05-10T09:28:36.988Z,23.20
2023-05-10T09:31:06.236Z,23.20
2023-05-10T09:33:47.105Z,23.20
2023-05-10T09:36:17.713Z,23.20
2023-05-10T09:38:50.901Z,23.20
2023-05-10T09:41:21.342Z,23.20
2023-05-10T09:43:53.067Z,23.20
2023-05-10T09:46:22.454Z,23.20
2023-05-10T09:48:51.736Z,23.20
2023-05-10T09:51:24.179Z,23.20
2023-05-10T09:54:11.830Z,23.20
2023-05-10T09:56:41.914Z,23.20
2023-05-10T09:59:13.758Z,23.20
2023-05-10T10:01:43.817Z,23.20
2023-05-10T10:04:13.448Z,23.20
2023-05-10T10:06:43.019Z,23.20
2023-05-10T10:09:12.417Z,23.20
2023-05-10T10:11:42.578Z,23.20
2023-05-10T10:14:14.992Z,23.20
2023-05-10T10:16:59.502Z,23.20
2023-05-10T10:19:36.903Z,23.20
2023-05-10T10:22:07.080Z,23.20
2023-05-10T10:24:36.512Z,23.20
2023-05-10T10:27:15.333Z,23.20
2023-05-10T10:29:54.790Z,23.20
2023-05-10T10:32:32.446Z,23.20
2023-05-10T10:35:01.986Z,23.20
2023-05-10T10:37:46.639Z,23.20
2023-05-10T10:40:31.374Z,23.20
2023-05-10T10:43:24.058Z,23.10
2023-05-10T10:46:19.121Z,23.10
2023-05-10T10:48:54.285Z,23.10
2023-05-10T10:51:23.584Z,23.10
2023-05-10T10:53:52.802Z,23.10
2023-05-10T10:56:25.542Z,23.20
2023-05-10T10:58:54.991Z,23.20
2023-05-10T11:01:25.807Z,23.20
2023-05-10T11:04:21.970Z,23.20
2023-05-10T11:06:51.362Z,23.20
2023-05-10T11:09:21.903Z,23.20
2023-05-10T11:11:56.570Z,23.20
2023-05-10T11:14:26.130Z,23.20
2023-05-10T11:16:56.852Z,23.20
2023-05-10T11:19:30.770Z,23.20
2023-05-10T11:22:15.532Z,23.20
2023-05-10T11:24:59.376Z,23.20
2023-05-10T11:27:28.650Z,23.20
2023-05-10T11:29:57.962Z,23.20
2023-05-10T11:32:29.175Z,23.20
2023-05-10T11:34:58.378Z,23.20
2023-05-10T11:37:33.482Z,23.20
2023-05-10T11:40:03.880Z,23.20
2023-05-10T11:42:33.419Z,23.20
2023-05-10T11:45:03.767Z,23.30
2023-05-10T11:47:36.736Z,23.30
2023-05-10T11:50:08.053Z,23.30
2023-05-10T11:52:39.421Z,23.30
2023-05-10T11:55:09.806Z,23.30
2023-05-10T11:57:39.754Z,23.40
2023-05-10T12:00:10.359Z,23.40
2023-05-10T12:02:41.713Z,23.40
2023-05-10T12:05:12.388Z,23.40
2023-05-10T12:07:41.741Z,23.40
2023-05-10T12:10:13.497Z,23.40
2023-05-10T12:12:44.248Z,23.40
2023-05-10T12:15:14.951Z,23.50
2023-05-10T12:17:48.182Z,23.50
2023-05-10T12:20:22.177Z,23.50
2023-05-10T12:22:53.830Z,23.40
2023-05-10T12:25:24.968Z,23.40
2023-05-10T12:27:56.426Z,23.50
2023-05-10T12:30:27.188Z,23.50
2023-05-10T12:33:03.284Z,23.50
2023-05-10T12:35:33.670Z,23.50
2023-05-10T12:38:02.843Z,23.50
2023-05-10T12:40:32.135Z,23.50
2023-05-10T12:43:01.393Z,23.50
2023-05-10T12:45:31.516Z,23.40
2023-05-10T12:48:02.291Z,23.40
2023-05-10T12:50:31.599Z,23.40
2023-05-10T12:53:00.668Z,23.40
2023-05-10T12:55:29.821Z,23.40
2023-05-10T12:57:59.051Z,23.40
2023-05-10T13:00:28.576Z,23.40
2023-05-10T13:02:58.008Z,23.40
2023-05-10T13:05:28.515Z,23.40
2023-05-10T13:07:57.681Z,23.40
2023-05-10T13:10:26.944Z,23.40
2023-05-10T13:12:56.385Z,23.40
2023-05-10T13:15:25.698Z,23.50
2023-05-10T13:17:55.675Z,23.50
2023-05-10T13:20:24.874Z,23.50
2023-05-10T13:22:55.637Z,23.50
2023-05-10T13:25:24.859Z,23.50
2023-05-10T13:27:53.972Z,23.50
2023-05-10T13:30:25.158Z,23.50
2023-05-10T13:32:55.216Z,23.50
2023-05-10T13:35:25.563Z,23.40
2023-05-10T13:37:58.968Z,23.40
2023-05-10T13:40:29.378Z,23.40
2023-05-10T13:42:58.732Z,23.40
2023-05-10T13:45:28.081Z,23.40
2023-05-10T13:47:57.300Z,23.40
2023-05-10T13:50:26.846Z,23.50
2023-05-10T13:52:57.415Z,23.40
2023-05-10T13:55:26.604Z,23.40
2023-05-10T13:57:55.658Z,23.40
2023-05-10T14:00:24.918Z,23.40
2023-05-10T14:02:54.181Z,23.30
2023-05-10T14:05:26.197Z,23.30
2023-05-10T14:07:57.186Z,23.20
2023-05-10T14:10:26.561Z,23.20
2023-05-10T14:12:55.718Z,23.20
2023-05-10T14:15:25.067Z,23.20
2023-05-10T14:17:54.622Z,23.20
2023-05-10T14:20:23.938Z,23.20
2023-05-10T14:22:53.124Z,23.20
2023-05-10T14:25:24.095Z,23.30
2023-05-10T14:27:55.737Z,23.30
2023-05-10T14:30:24.952Z,23.30
2023-05-10T14:32:55.165Z,23.30
2023-05-10T14:35:24.969Z,23.30
2023-05-10T14:37:54.323Z,23.30
2023-05-10T14:40:24.974Z,23.30
2023-05-10T14:42:57.458Z,23.30
2023-05-10T14:45:26.666Z,23.30
2023-05-10T14:47:56.037Z,23.30
2023-05-10T14:53:01.580Z,23.30
2023-05-10T14:55:32.257Z,23.30
2023-05-10T14:58:01.422Z,23.30
2023-05-10T15:00:32.340Z,23.30
2023-05-10T15:03:02.231Z,23.30
2023-05-10T15:05:40.769Z,23.30
2023-05-10T15:08:10.466Z,23.30
2023-05-10T15:10:41.142Z,23.30
2023-05-10T15:13:10.361Z,23.30
2023-05-10T15:15:39.466Z,23.30
2023-05-10T15:18:08.784Z,23.30
2023-05-10T15:20:37.908Z,23.30
2023-05-10T15:23:07.030Z,23.30
2023-05-10T15:25:38.315Z,23.30
2023-05-10T15:28:08.950Z,23.30
2023-05-10T15:30:38.167Z,23.30
2023-05-10T15:33:08.847Z,23.30
2023-05-10T15:35:39.380Z,23.30
2023-05-10T15:38:09.132Z,23.30
2023-05-10T15:40:38.319Z,23.30
2023-05-10T15:43:08.898Z,23.30
2023-05-10T15:45:38.292Z,23.30
2023-05-10T15:48:08.077Z,23.30
2023-05-10T15:50:37.440Z,23.30
2023-05-10T15:53:06.770Z,23.30
2023-05-10T15:55:36.344Z,23.30
2023-05-10T15:58:05.712Z,23.30
2023-05-10T16:00:36.446Z,23.30
2023-05-10T16:03:05.842Z,23.30
2023-05-10T16:05:35.390Z,23.30
2023-05-10T16:08:04.636Z,23.30
2023-05-10T16:10:34.450Z,23.30
2023-05-10T16:13:04.029Z,23.30
2023-05-10T16:15:33.220Z,23.30
2023-05-10T16:18:04.054Z,23.30
2023-05-10T16:20:34.468Z,23.30
2023-05-10T16:23:06.033Z,23.70
2023-05-10T16:25:35.923Z,23.60
2023-05-10T16:28:05.588Z,23.50
2023-05-10T16:30:34.893Z,23.40
2023-05-10T16:33:05.779Z,23.40
2023-05-10T16:35:35.089Z,23.30
2023-05-10T16:38:04.606Z,23.30
2023-05-10T16:40:34.461Z,23.30
2023-05-10T16:43:03.709Z,23.30
2023-05-10T16:45:33.458Z,23.30
2023-05-10T16:48:03.043Z,23.30
2023-05-10T16:50:33.725Z,23.30
2023-05-10T16:53:03.276Z,23.30
2023-05-10T16:55:32.498Z,23.30
2023-05-10T16:58:03.398Z,23.30
2023-05-10T17:00:33.178Z,23.30
2023-05-10T17:03:02.558Z,23.30
2023-05-10T17:05:33.274Z,23.30
2023-05-10T17:08:02.690Z,23.30
2023-05-10T17:10:31.920Z,23.20
2023-05-10T17:13:01.258Z,23.30
2023-05-10T17:15:30.682Z,23.30
2023-05-10T17:17:59.986Z,23.30
2023-05-10T17:20:29.286Z,23.20
2023-05-10T17:23:00.029Z,23.20
2023-05-10T17:25:29.371Z,23.20
2023-05-10T17:27:58.604Z,23.20
2023-05-10T17:30:28.931Z,23.20
2023-05-10T17:32:58.211Z,23.20
2023-05-10T17:35:27.738Z,23.20
2023-05-10T17:37:56.953Z,23.20
2023-05-10T17:40:27.642Z,23.20
2023-05-10T17:42:56.964Z,23.20
2023-05-10T17:45:26.577Z,23.20
2023-05-10T17:47:55.933Z,23.20
2023-05-10T17:50:25.383Z,23.20
2023-05-10T17:52:54.618Z,23.20
2023-05-10T17:55:23.842Z,23.20
2023-05-10T17:57:54.477Z,23.20
2023-05-10T18:00:23.806Z,23.20
2023-05-10T18:02:53.419Z,23.10
2023-05-10T18:05:23.279Z,23.10
2023-05-10T18:07:52.833Z,23.10
2023-05-10T18:10:23.055Z,23.10
2023-05-10T18:12:53.807Z,23.10
2023-05-10T18:15:23.230Z,23.10
2023-05-10T18:17:53.015Z,23.10
2023-05-10T18:20:22.506Z,23.20
2023-05-10T18:22:52.105Z,23.20
2023-05-10T18:25:21.705Z,23.20
2023-05-10T18:27:51.134Z,23.10
2023-05-10T18:30:22.788Z,23.20
2023-05-10T18:32:52.083Z,23.20
2023-05-10T18:38:19.515Z,23.20
2023-05-10T18:40:48.783Z,23.10
2023-05-10T18:43:18.060Z,23.10
2023-05-10T18:45:48.732Z,23.10
2023-05-10T18:48:18.457Z,23.10
2023-05-10T18:50:47.658Z,23.10
2023-05-10T18:53:17.343Z,23.10
2023-05-10T18:55:46.855Z,23.10
2023-05-10T18:58:16.105Z,23.10
2023-05-10T19:00:45.430Z,23.20
2023-05-10T19:03:16.349Z,23.10
2023-05-10T19:05:47.338Z,23.20
2023-05-10T19:08:17.020Z,23.10
2023-05-10T19:10:47.822Z,23.10
2023-05-10T19:13:17.776Z,23.20
2023-05-10T19:15:48.409Z,23.20
2023-05-10T19:18:19.899Z,23.20
2023-05-10T19:20:49.190Z,23.20
2023-05-10T19:23:18.774Z,23.20
2023-05-10T19:25:48.210Z,23.20
2023-05-10T19:28:17.668Z,23.20
2023-05-10T19:30:46.995Z,23.20
2023-05-10T19:33:16.322Z,23.20
2023-05-10T19:35:47.170Z,23.20
2023-05-10T19:38:16.519Z,23.20
2023-05-10T19:40:45.640Z,23.20
2023-05-10T19:43:14.961Z,23.20
2023-05-10T19:45:44.575Z,23.20
2023-05-10T19:48:13.776Z,23.20
2023-05-10T19:50:43.024Z,23.20
2023-05-10T19:53:13.715Z,23.20
2023-05-10T19:55:42.966Z,23.20
2023-05-10T19:58:12.433Z,23.20
2023-05-10T20:00:41.615Z,23.20
2023-05-10T20:03:11.394Z,23.20
2023-05-10T20:05:40.873Z,23.20
2023-05-10T20:08:10.097Z,23.20
2023-05-10T20:10:40.836Z,23.20
2023-05-10T20:13:10.320Z,23.20
2023-05-10T20:15:39.495Z,23.20
2023-05-10T20:18:08.724Z,23.20
2023-05-10T20:20:37.883Z,23.10
2023-05-10T20:23:07.140Z,23.10
2023-05-10T20:25:36.618Z,23.10
2023-05-10T20:28:08.635Z,23.10
2023-05-10T20:30:37.775Z,23.10
2023-05-10T20:33:07.030Z,23.10
2023-05-10T20:35:36.225Z,23.10
2023-05-10T20:38:05.814Z,23.10
2023-05-10T20:40:35.095Z,23.10
2023-05-10T20:43:05.547Z,23.10
2023-05-10T20:45:37.705Z,23.10
2023-05-10T20:48:07.909Z,23.10
2023-05-10T20:50:37.253Z,23.10
2023-05-10T20:53:06.662Z,23.00
2023-05-10T20:55:38.494Z,23.00
2023-05-10T20:58:07.692Z,23.00
2023-05-10T21:00:38.279Z,23.00
2023-05-10T21:03:07.581Z,23.00
2023-05-10T21:05:36.979Z,23.00
2023-05-10T21:08:06.258Z,23.00
2023-05-10T21:10:35.403Z,23.00
2023-05-10T21:13:04.683Z,23.00
2023-05-10T21:15:33.830Z,23.00
2023-05-10T21:18:04.859Z,23.00
2023-05-10T21:20:34.089Z,22.90
2023-05-10T21:23:03.262Z,22.90
2023-05-10T21:25:32.442Z,22.90
2023-05-10T21:28:01.622Z,22.90
2023-05-10T21:30:30.824Z,22.90
2023-05-10T21:33:00.108Z,22.90
2023-05-10T21:35:31.840Z,22.90
2023-05-10T21:38:00.972Z,22.90
2023-05-10T21:40:30.658Z,22.90
2023-05-10T21:42:59.804Z,22.90
2023-05-10T21:45:32.890Z,22.90
2023-05-10T21:48:02.671Z,22.90
2023-05-10T21:50:33.271Z,22.90
2023-05-10T21:53:03.134Z,22.80
2023-05-10T21:55:32.653Z,22.80
2023-05-10T21:58:01.894Z,22.90
2023-05-10T22:00:34.004Z,22.80
2023-05-10T22:03:03.526Z,22.80
2023-05-10T22:05:34.160Z,22.80
2023-05-10T22:08:03.439Z,22.80
2023-05-10T22:10:32.987Z,22.80
2023-05-10T22:13:02.190Z,22.80
2023-05-10T22:15:34.112Z,22.80
2023-05-10T22:18:04.956Z,22.80
2023-05-10T22:20:35.500Z,22.80
2023-05-10T22:23:04.858Z,22.80
2023-05-10T22:25:34.017Z,22.80
2023-05-10T22:28:03.190Z,22.80
2023-05-10T22:30:33.192Z,22.80
2023-05-10T22:33:02.731Z,22.80
2023-05-10T22:35:31.978Z,22.80
2023-05-10T22:38:02.605Z,22.80
2023-05-10T22:40:31.744Z,22.70
2023-05-10T22:43:00.892Z,22.80
2023-05-10T22:45:30.066Z,22.70
2023-05-10T22:47:59.163Z,22.70
2023-05-10T22:50:29.408Z,22.80
2023-05-10T22:52:58.631Z,22.70
2023-05-10T22:55:29.199Z,22.70
2023-05-10T22:57:58.395Z,22.70
2023-05-10T23:00:27.651Z,22.70
2023-05-10T23:02:57.584Z,22.70
2023-05-10T23:05:27.073Z,22.70
2023-05-10T23:07:56.253Z,22.70
2023-05-10T23:10:25.654Z,22.70
2023-05-10T23:12:56.950Z,22.70
2023-05-10T23:15:26.203Z,22.70
2023-05-10T23:17:55.431Z,22.70
2023-05-10T23:20:24.630Z,22.70
2023-05-10T23:22:53.849Z,22.70
2023-05-10T23:25:23.063Z,22.70
2023-05-10T23:27:52.362Z,22.70
2023-05-10T23:30:23.066Z,22.60
2023-05-10T23:32:52.379Z,22.60
2023-05-10T23:35:21.630Z,22.70
2023-05-10T23:37:50.723Z,22.60
2023-05-10T23:40:20.244Z,22.60
2023-05-10T23:42:49.658Z,22.60
2023-05-10T23:45:19.014Z,22.60
2023-05-10T23:47:49.641Z,22.60
2023-05-10T23:50:19.086Z,22.60
2023-05-10T23:52:48.565Z,22.60
2023-05-10T23:55:18.032Z,22.60
2023-05-10T23:57:47.189Z,22.60
